FNHU/NOV METAR and TAF weather

Enter ICAO airport designator
Station Type Date Time Source
FNHU METAR 2019/12/14 16:00 UTC NOAA

FNHU 141600Z 00000KT 9999 SCT019 BKN070 23/16 Q1018


Station Type Date Time Source
FNHU Decoded METAR 2019/12/14 16:00 UTC NOAA

Huambo Nova Lisboa , Angola (FNHU) 12-48S 015-45E 1701M
Dec 14, 2019 - 11:00 AM EST / 2019.12.14 1600 UTC
Wind: Calm:0
Visibility: greater than 7 mile(s):0
Sky conditions: mostly cloudy
Temperature: 73 F (23 C)
Dew Point: 60 F (16 C)
Relative Humidity: 64%
Pressure (altimeter): 30.06 in. Hg (1018 hPa)
ob: FNHU 141600Z 00000KT 9999 SCT019 BKN070 23/16 Q1018
cycle: 16

Station Type Date Time Source
FNHU TAF 2019/12/14 12:45 UTC NOAA

TAF FNHU 141045Z 1412/1424 14008KT 9999 FEW018 SCT030 PROB30
TEMPO 1413/1417 7000 -RA SCT014 BKN020
BECMG 1420/1422 VRB03KT 8000 SCT020

Example: see airport list